Rock Springs, WY (82901)

6:57 AM MDT on July 25, 2014 (GMT -0600)
Rock Springs-Sweetwater (KRKS) Elev 6759 ft | 41.59 °N, 109.05 °W | Change Station
Active Advisory: Fire Weather Warning

Current weather conditions updated 3 minutes ago

Clear
Clear
59 °F
Feels Like 59 °F
N
6
Wind Variable Wind from SE

Today is forecast to be nearly the same temperature as yesterday.

Today
High -- | Low -- °F
--% Chance of Precip.
Yesterday
High -- | Low -- °F
Precip. -- in
6:03 AM 8:40 PM
Waning Crescent, 2% visible
Pressure 29.91 in
Visibility 10.0 miles
Clouds Clear
Dew Point 28 °F
Humidity 31%
Rainfall 0.00 in
Snow Depth Not available.
UV 0 out of 12
Pollen 7.30 out of 12
Air Quality Not available.
Flu Activity Not available.
METAR KRKS 251254Z AUTO 14005KT 10SM CLR 15/M02 A3019 RMK AO2 SLP128 T01501022

More Conditions Fewer Conditions

Pressure 29.91 in
Visibility 10.0 miles
Clouds Clear
Dew Point 28 °F
Humidity 31%
Rainfall 0.00 in
Snow Depth Not available.
UV 0 out of 12
Pollen 7.30 out of 12
Air Quality Not available.
Flu Activity Not available.
METAR KRKS 251254Z AUTO 14005KT 10SM CLR 15/M02 A3019 RMK AO2 SLP128 T01501022

More Conditions Fewer Conditions

10-Day Weather Forecast

Almanac

Astronomy

Jul. 25, 2014 Rise Set
Actual Time 6:03 AM MDT 8:40 PM MDT
Civil Twilight 5:31 AM MDT 9:12 PM MDT
Nautical Twilight 4:51 AM MDT 9:52 PM MDT
Astronomical Twilight 4:05 AM MDT 10:37 PM MDT
Moon 5:06 AM MDT 7:38 PM MDT
Length of Visible Light 15h 41m
Length of Day
14h 37m
Tomorrow will be 1m 53s shorter.
Waning Crescent, 2% of the Moon is Illuminated
Today
Waning Crescent
Jul 26
New
Aug 3
First Quarter
Aug 10
Full
Aug 17
Last Quarter

Today's Extremes

State Highs State Lows

Community

WunderPhotos

Upload Photos

1,737,308 photos uploaded!

Nearby

Snow Depth

Station Depth Elevation
Big Sandy Opening 1 in 9080 ft
Townsend Creek 1 in 8700 ft
Sage Creek Basin 0 in 7850 ft
Divide Peak 0 in 8860 ft
Battle Mountain 0 in 7440 ft

Earthquake Activity

City Distance Mag. Time & Date
No recent earthquake activity has been reported nearby.
Minimum magnitude displayed is 2.5.

Coastal Water Temperatures

Place Temperature
No Stations Reporting

Nearby Weather Stations

Station Location Temp. Windchill Dew Point Humidity Wind Precip. Elev Updated Type
MesoWest HALLV1 , Point Of Rocks, WY 47 °F 47 °F - - North  at  - 0.00 in / hr 6567 ft 6:00 AM MDT MADIS
RAWS SNOW SPRINGS CREEK WY, Rock Springs, WY 62 °F - 31 °F 31% South  at  5 mph 0.00 in / hr 7549 ft 5:44 AM MDT MADIS
Fairway Estates, Rock Springs, WY 51.6 °F - 25 °F 35% North  at  0.0 mph 0.00 in / hr 6430 ft 6:57 AM MDT Normal
MesoWest KANDAW , Rock Springs, WY 52 °F - - - North  at  - 0.00 in / hr 6211 ft 6:00 AM MDT MADIS
HADS BITTER CREEK 4 NE WY, Rock Springs, WY 52 °F - - - North  at  - 0.00 in / hr 6720 ft 6:00 AM MDT MADIS

Show More Stations Show Fewer Stations